Latest Coastal Weather Observations for Dum In Mirrie

IDD60701

Issued at 5:01 am CST Thursday 14 November 2019 (issued every 10 minutes, with the page automatically refreshed every 10 minutes)

About coastal observations | Map of coastal stations | Coastal observations for NT | Marine services | Other Formats
Station Details ID: 014277 Name: DUM IN MIRRIE AIRSTRIP Lat: -12.63 Lon: 130.37 Height: 3.5 m
Data from the previous 72 hours. | See also: Recent months at Dum In Mirrie
Date/Time
CST
Wind Sea
Height
m
Swell Vis
km
Cloud Weather Temp
°C
Press
hPa
Rain since
9am
mm
Dir  Spd
kts
Gust
kts
Height
m
Period
s
Dir
14/05:00am N 2 4 - - - - - - - 27.2 1010.0 -
14/04:30am NNE 2 4 - - - - - - - 27.1 1009.8 -
14/04:00am NE 2 3 - - - - - - - 27.1 1009.9 -
14/03:30am NNE 2 3 - - - - - - - 26.8 1009.6 -
14/03:00am NE 2 2 - - - - - - - 26.6 1009.7 0.0
14/02:30am CALM 0 0 - - - - - - - 26.3 1009.7 -
14/02:00am N 1 2 - - - - - - - 26.1 1010.0 -
14/01:30am CALM 0 0 - - - - - - - 26.2 1010.2 -
14/01:00am N 1 3 - - - - - - - 26.9 1010.2 -
14/12:30am WNW 2 4 - - - - - - - 28.4 1010.2 -
14/12:00am WNW 3 6 - - - - - - - 28.9 1010.5 -
 
Date/Time
CST
Wind Sea
Height
m
Swell Vis
km
Cloud Weather Temp
°C
Press
hPa
Rain since
9am
mm
Dir  Spd
kts
Gust
kts
Height
m
Period
s
Dir
13/11:30pm W 4 9 - - - - - - - 29.1 1010.3 -
13/11:00pm W 4 9 - - - - - - - 29.1 1010.5 -
13/10:30pm WNW 4 8 - - - - - - - 29.1 1010.4 -
13/10:00pm W 4 8 - - - - - - - 29.2 1010.0 -
13/09:30pm WNW 4 7 - - - - - - - 29.1 1009.7 -
13/09:00pm NW 3 8 - - - - - - - 29.1 1009.7 -
13/08:30pm NW 4 7 - - - - - - - 29.2 1009.5 -
13/08:00pm WNW 4 8 - - - - - - - 29.2 1009.4 -
13/07:30pm WNW 2 3 - - - - - - - 29.1 1009.8 -
13/07:00pm SW 3 6 - - - - - - - 29.7 1009.9 -
13/06:30pm W 3 7 - - - - - - - 29.8 1009.2 -
13/06:00pm WNW 4 8 - - - - - - - 30.0 1008.8 -
13/05:30pm W 5 8 - - - - - - - 30.6 1008.8 -
13/05:00pm W 6 10 - - - - - - - 31.4 1007.9 -
13/04:30pm W 6 11 - - - - - - - 31.6 1008.2 -
13/04:00pm W 7 11 - - - - - - - 31.7 1008.5 0.0
13/03:30pm WNW 5 11 - - - - - - - 32.1 1008.8 0.0
13/03:00pm W 6 11 - - - - - - - 33.0 1009.2 0.0
13/02:30pm W 6 9 - - - - - - - 32.5 1009.6 0.0
13/02:00pm W 6 10 - - - - - - - 32.4 1010.1 0.0
13/01:30pm WNW 5 9 - - - - - - - 32.8 1010.3 0.0
13/01:00pm WNW 5 8 - - - - - - - 32.4 1010.7 0.0
13/12:30pm WNW 4 9 - - - - - - - 31.9 1011.2 0.0
13/12:00pm NW 4 7 - - - - - - - 32.5 1011.7 0.0
13/11:30am WNW 4 8 - - - - - - - 32.2 1012.3 0.0
13/11:00am WNW 5 8 - - - - - - - 31.3 1012.5 0.0
13/10:30am WNW 3 5 - - - - - - - 30.8 1012.7 0.0
13/10:00am WNW 3 6 - - - - - - - 30.9 1012.9 0.0
13/09:30am WNW 2 4 - - - - - - - 31.0 1012.9 0.0
13/09:00am NW 3 5 - - - - - - - 30.7 1012.8 0.0
13/08:30am NW 3 5 - - - - - - - 30.4 1012.8 0.0
13/08:00am NNW 2 5 - - - - - - - 30.2 1012.5 0.0
13/07:30am N 3 5 - - - - - - - 29.4 1012.2 0.0
13/07:00am N 1 5 - - - - - - - 28.3 1012.0 0.0
13/06:30am N 3 5 - - - - - - - 27.8 1011.9 0.0
13/06:00am N 3 6 - - - - - - - 27.8 1011.8 0.0
13/05:30am N 3 5 - - - - - - - 27.7 1011.5 0.0
13/05:00am N 3 5 - - - - - - - 27.8 1011.3 0.0
13/04:30am N 2 3 - - - - - - - 27.8 1011.0 0.0
13/04:00am N 3 6 - - - - - - - 28.1 1010.6 0.0
13/03:30am N 3 7 - - - - - - - 28.2 1010.5 0.0
13/03:00am N 3 7 - - - - - - - 28.2 1010.5 0.0
13/02:30am N 3 6 - - - - - - - 28.4 1010.7 0.0
13/02:00am N 3 5 - - - - - - - 28.6 1010.7 0.0
13/01:30am N 3 5 - - - - - - - 28.4 1010.7 0.0
13/01:00am N 3 7 - - - - - - - 28.5 1010.7 0.0
13/12:30am NNW 3 5 - - - - - - - 28.4 1011.2 0.0
13/12:00am NW 2 4 - - - - - - - 28.7 1011.5 0.0
 
Date/Time
CST
Wind Sea
Height
m
Swell Vis
km
Cloud Weather Temp
°C
Press
hPa
Rain since
9am
mm
Dir  Spd
kts
Gust
kts
Height
m
Period
s
Dir
12/11:30pm NW 2 4 - - - - - - - 29.1 1011.4 0.0
12/11:00pm WNW 3 6 - - - - - - - 29.4 1011.5 0.0
12/10:30pm NW 4 7 - - - - - - - 29.5 1011.4 0.0
12/10:00pm WNW 4 8 - - - - - - - 29.7 1011.3 0.0
12/09:30pm WNW 3 6 - - - - - - - 29.8 1011.3 0.0
12/09:00pm WNW 4 7 - - - - - - - 29.9 1011.0 0.0
12/08:30pm W 4 8 - - - - - - - 30.0 1010.7 0.0
12/08:00pm W 4 7 - - - - - - - 30.1 1010.5 0.0
12/07:30pm W 5 9 - - - - - - - 30.2 1010.1 0.0
12/07:00pm W 5 8 - - - - - - - 30.3 1009.7 0.0
12/06:30pm W 5 9 - - - - - - - 30.6 1009.5 0.0
12/06:00pm WNW 5 9 - - - - - - - 31.5 1009.2 0.0
12/05:30pm WNW 4 9 - - - - - - - 32.3 1008.9 0.0
12/05:00pm WNW 4 8 - - - - - - - 32.8 1008.8 0.0
12/04:30pm WNW 5 10 - - - - - - - 32.8 1008.8 0.0
12/04:00pm WNW 4 10 - - - - - - - 33.7 1009.0 0.0
12/03:30pm NW 5 10 - - - - - - - 33.3 1009.1 0.0
12/03:00pm NW 5 9 - - - - - - - 33.2 1009.3 0.0
12/02:30pm WNW 6 9 - - - - - - - 33.4 1009.6 0.0
12/02:00pm WNW 5 10 - - - - - - - 33.0 1009.9 0.0
12/01:30pm WNW 6 10 - - - - - - - 33.1 1010.3 0.0
12/01:00pm W 5 9 - - - - - - - 33.3 1010.7 0.0
12/12:30pm W 4 7 - - - - - - - 33.2 1011.3 0.0
12/12:00pm W 4 7 - - - - - - - 32.8 1011.5 0.0
12/11:30am W 4 9 - - - - - - - 32.2 1012.0 0.0
12/11:00am W 4 7 - - - - - - - 32.4 1012.4 0.0
12/10:30am W 4 7 - - - - - - - 32.1 1012.7 0.0
12/10:00am W 4 6 - - - - - - - 32.0 1012.9 0.0
12/09:30am SW 2 4 - - - - - - - 31.4 1012.6 0.0
12/09:00am WSW 2 4 - - - - - - - 30.9 1012.4 0.0
12/08:30am NE 1 2 - - - - - - - 31.1 1012.0 0.0
12/08:00am CALM 0 2 - - - - - - - 30.7 1011.9 0.0
12/07:30am CALM 0 0 - - - - - - - 29.2 1011.6 0.0
12/07:00am CALM 0 1 - - - - - - - 26.0 1011.0 0.0
12/06:30am CALM 0 0 - - - - - - - 24.4 1010.8 0.0
12/06:00am CALM 0 0 - - - - - - - 24.4 1010.6 0.0
12/05:30am CALM 0 0 - - - - - - - 24.7 1010.3 0.0
12/05:00am CALM 0 0 - - - - - - - 25.2 1010.0 0.0
12/04:30am CALM 0 1 - - - - - - - 25.9 1009.8 0.0
12/04:00am CALM 0 1 - - - - - - - 26.5 1009.7 0.0
12/03:30am N 1 3 - - - - - - - 27.1 1009.4 0.0
12/03:00am N 1 3 - - - - - - - 27.6 1009.3 0.0
12/02:30am NNW 2 4 - - - - - - - 28.0 1009.4 0.0
12/02:00am NW 2 5 - - - - - - - 28.4 1009.6 0.0
12/01:30am NW 2 5 - - - - - - - 28.7 1009.7 0.0
12/01:00am NW 3 5 - - - - - - - 28.5 1009.8 0.0
12/12:30am NW 2 4 - - - - - - - 28.6 1010.0 0.0
12/12:00am NW 3 6 - - - - - - - 28.8 1010.3 0.0
 
Date/Time
CST
Wind Sea
Height
m
Swell Vis
km
Cloud Weather Temp
°C
Press
hPa
Rain since
9am
mm
Dir  Spd
kts
Gust
kts
Height
m
Period
s
Dir
11/11:30pm NW 3 5 - - - - - - - 28.8 1010.4 0.0
11/11:00pm NW 4 7 - - - - - - - 29.1 1010.4 0.0
11/10:30pm WNW 4 8 - - - - - - - 29.3 1010.3 0.0
11/10:00pm WNW 3 7 - - - - - - - 29.4 1010.2 0.0
11/09:30pm WNW 3 6 - - - - - - - 29.4 1009.9 0.0
11/09:00pm W 4 8 - - - - - - - 29.5 1009.6 0.0
11/08:30pm W 4 8 - - - - - - - 29.6 1009.3 0.0
11/08:00pm W 5 9 - - - - - - - 29.7 1008.9 0.0
11/07:30pm W 5 9 - - - - - - - 29.9 1008.5 0.0
11/07:00pm W 5 8 - - - - - - - 30.0 1008.2 0.0
11/06:30pm WSW 6 9 - - - - - - - 30.4 1008.1 0.0
11/06:00pm WSW 5 9 - - - - - - - 31.1 1008.1 0.0
11/05:30pm WSW 6 11 - - - - - - - 31.5 1007.9 0.0
11/05:00pm W 6 11 - - - - - - - 31.8 1007.8 0.0
11/04:30pm W 7 10 - - - - - - - 32.4 1008.0 0.0
11/04:00pm WSW 6 10 - - - - - - - 32.6 1008.0 0.0
11/03:30pm W 5 9 - - - - - - - 33.0 1008.3 0.0
11/03:00pm W 6 11 - - - - - - - 32.6 1008.6 0.0
11/02:30pm W 6 10 - - - - - - - 32.8 1008.8 0.0
11/02:00pm W 5 9 - - - - - - - 33.2 1009.2 0.0
11/01:30pm W 5 8 - - - - - - - 33.4 1009.6 0.0
11/01:00pm W 5 8 - - - - - - - 33.2 1010.1 0.0
11/12:30pm WNW 5 8 - - - - - - - 32.9 1010.4 0.0
11/12:00pm WNW 5 9 - - - - - - - 32.7 1010.8 0.0
11/11:30am NW 4 7 - - - - - - - 32.9 1011.2 0.0
11/11:00am NNW 3 6 - - - - - - - 33.0 1011.4 0.0
11/10:30am NNW 4 6 - - - - - - - 32.8 1011.8 0.0
11/10:00am N 2 4 - - - - - - - 32.2 1011.8 0.0
11/09:30am N 2 5 - - - - - - - 31.7 1011.6 0.0
11/09:00am NNW 3 6 - - - - - - - 31.1 1011.5 -
11/08:30am N 2 5 - - - - - - - 30.9 1011.3 -
11/08:00am CALM 0 0 - - - - - - - 30.0 1011.1 -
11/07:30am NNE 1 3 - - - - - - - 27.9 1010.7 -
11/07:00am NNE 1 2 - - - - - - - 26.4 1010.4 -
11/06:30am CALM 0 0 - - - - - - - 25.2 1010.1 -
11/06:00am CALM 0 0 - - - - - - - 24.9 1010.0 -
11/05:30am CALM 0 0 - - - - - - - 24.9 1009.8 -

Other formats

Comma delimited format used in spreadsheet applications
http://www.bom.gov.au/fwo/IDD60701/IDD60701.94116.axf

JavaScript Object Notation format (JSON) in row-major order
http://www.bom.gov.au/fwo/IDD60701/IDD60701.94116.json

Data quality

Most of these data are generated automatically and are frequently updated. Quality checks on data are not normally performed. It is possible for incorrect values to appear. Refer to information at About Latest Weather Observations and please check the disclaimer before using these data.